createdAt,value
2018-07-13T00:00:27.624Z,99355.16
2018-07-13T00:00:58.806Z,99361.45
2018-07-13T00:01:29.986Z,99358.06
2018-07-13T00:02:01.199Z,99361.69
2018-07-13T00:02:32.389Z,99360.23
2018-07-13T00:03:03.579Z,99363.53
2018-07-13T00:03:34.757Z,99364.61
2018-07-13T00:04:05.982Z,99356.39
2018-07-13T00:04:37.202Z,99364.16
2018-07-13T00:05:08.387Z,99358.87
2018-07-13T00:05:39.572Z,99360.44
2018-07-13T00:06:10.750Z,99359.38
2018-07-13T00:06:41.925Z,99363.97
2018-07-13T00:07:13.093Z,99359.88
2018-07-13T00:07:44.316Z,99362.91
2018-07-13T00:08:15.553Z,99362.45
2018-07-13T00:08:46.736Z,99362.69
2018-07-13T00:09:17.965Z,99360.63
2018-07-13T00:09:49.250Z,99361.02
2018-07-13T00:10:20.438Z,99365.12
2018-07-13T00:10:51.618Z,99366.45
2018-07-13T00:11:22.788Z,99365.75
2018-07-13T00:11:53.965Z,99368.55
2018-07-13T00:12:25.137Z,99363.09
2018-07-13T00:12:56.366Z,99369.74
2018-07-13T00:13:27.556Z,99369.37
2018-07-13T00:13:58.792Z,99371.08
2018-07-13T00:14:30.032Z,99373.23
2018-07-13T00:15:01.281Z,99373.88
2018-07-13T00:15:32.506Z,99372.41
2018-07-13T00:16:03.688Z,99374.97
2018-07-13T00:16:34.856Z,99374.23
2018-07-13T00:17:06.093Z,99373.50
2018-07-13T00:17:37.334Z,99372.44
2018-07-13T00:18:08.528Z,99377.53
2018-07-13T00:18:39.747Z,99374.63
2018-07-13T00:19:10.981Z,99374.27
2018-07-13T00:19:43.278Z,99369.54
2018-07-13T00:20:14.466Z,99376.19
2018-07-13T00:20:45.710Z,99378.13
2018-07-13T00:21:16.885Z,99375.36
2018-07-13T00:21:48.057Z,99373.89
2018-07-13T00:22:19.268Z,99374.02
2018-07-13T00:22:50.472Z,99374.25
2018-07-13T00:23:21.656Z,99378.51
2018-07-13T00:23:52.837Z,99379.47
2018-07-13T00:24:24.050Z,99377.53
2018-07-13T00:24:55.246Z,99375.73
2018-07-13T00:25:26.436Z,99375.13
2018-07-13T00:25:57.612Z,99372.59
2018-07-13T00:26:28.785Z,99377.18
2018-07-13T00:27:00.013Z,99370.16
2018-07-13T00:27:31.266Z,99377.07
2018-07-13T00:28:02.537Z,99374.64
2018-07-13T00:28:33.791Z,99370.28
2018-07-13T00:29:05.055Z,99375.60
2018-07-13T00:29:36.329Z,99372.61
2018-07-13T00:30:07.572Z,99369.81
2018-07-13T00:30:38.772Z,99371.77
2018-07-13T00:31:10.015Z,99367.87
2018-07-13T00:31:41.265Z,99367.77
2018-07-13T00:32:12.500Z,99365.11
2018-07-13T00:32:43.757Z,99362.56
2018-07-13T00:33:14.944Z,99364.97
2018-07-13T00:33:46.142Z,99362.67
2018-07-13T00:34:17.318Z,99366.90
2018-07-13T00:34:48.545Z,99361.58
2018-07-13T00:35:19.765Z,99364.48
2018-07-13T00:35:50.944Z,99369.57
2018-07-13T00:36:22.181Z,99370.53
2018-07-13T00:36:53.370Z,99363.88
2018-07-13T00:37:24.539Z,99367.14
2018-07-13T00:37:55.724Z,99364.73
2018-07-13T00:38:26.942Z,99365.83
2018-07-13T00:38:58.121Z,99359.78
2018-07-13T00:39:29.350Z,99363.40
2018-07-13T00:40:00.632Z,99364.27
2018-07-13T00:40:31.820Z,99366.92
2018-07-13T00:41:02.996Z,99365.96
2018-07-13T00:41:34.176Z,99364.03
2018-07-13T00:42:05.413Z,99362.92
2018-07-13T00:42:36.620Z,99362.92
2018-07-13T00:43:07.796Z,99363.05
2018-07-13T00:43:39.516Z,99364.02
2018-07-13T00:44:10.774Z,99363.64
2018-07-13T00:44:41.989Z,99362.81
2018-07-13T00:45:13.226Z,99362.81
2018-07-13T00:45:44.392Z,99362.94
2018-07-13T00:46:15.618Z,99370.18
2018-07-13T00:46:46.861Z,99368.02
2018-07-13T00:47:18.048Z,99367.76
2018-07-13T00:47:49.224Z,99363.28
2018-07-13T00:48:20.464Z,99367.27
2018-07-13T00:48:51.649Z,99364.97
2018-07-13T00:49:23.613Z,99363.55
2018-07-13T00:49:54.807Z,99369.33
2018-07-13T00:50:26.031Z,99368.00
2018-07-13T00:50:57.256Z,99367.87
2018-07-13T00:51:28.428Z,99366.67
2018-07-13T00:51:59.592Z,99364.14
2018-07-13T00:52:30.786Z,99369.33
2018-07-13T00:53:02.023Z,99366.67
2018-07-13T00:53:33.225Z,99370.66
2018-07-13T00:54:04.446Z,99367.63
2018-07-13T00:54:35.624Z,99372.58
2018-07-13T00:55:06.856Z,99363.53
2018-07-13T00:55:38.017Z,99367.28
2018-07-13T00:56:09.240Z,99371.40
2018-07-13T00:56:40.419Z,99373.81
2018-07-13T00:57:11.604Z,99367.52
2018-07-13T00:57:42.861Z,99377.91
2018-07-13T00:58:14.044Z,99372.73
2018-07-13T00:58:45.208Z,99372.48
2018-07-13T00:59:16.403Z,99371.75
2018-07-13T00:59:47.583Z,99372.06
2018-07-13T01:00:18.805Z,99371.36
2018-07-13T01:00:50.010Z,99374.84
2018-07-13T01:01:21.192Z,99376.17
2018-07-13T01:01:52.421Z,99371.58
2018-07-13T01:02:23.604Z,99375.19
2018-07-13T01:02:54.861Z,99377.48
2018-07-13T01:03:26.093Z,99376.28
2018-07-13T01:03:57.338Z,99371.22
2018-07-13T01:04:28.531Z,99374.70
2018-07-13T01:04:59.716Z,99374.12
2018-07-13T01:05:30.942Z,99375.81
2018-07-13T01:06:02.168Z,99377.48
2018-07-13T01:06:33.345Z,99371.70
2018-07-13T01:07:04.541Z,99375.56
2018-07-13T01:07:35.769Z,99377.73
2018-07-13T01:08:07.020Z,99375.67
2018-07-13T01:08:38.210Z,99374.02
2018-07-13T01:09:09.382Z,99370.03
2018-07-13T01:09:41.543Z,99373.73
2018-07-13T01:10:12.733Z,99374.11
2018-07-13T01:10:43.916Z,99374.84
2018-07-13T01:11:15.138Z,99377.38
2018-07-13T01:11:46.317Z,99377.01
2018-07-13T01:12:17.558Z,99369.41
2018-07-13T01:12:48.742Z,99374.87
2018-07-13T01:13:19.974Z,99375.23
2018-07-13T01:13:51.210Z,99372.11
2018-07-13T01:14:22.392Z,99374.77
2018-07-13T01:14:53.564Z,99372.83
2018-07-13T01:15:24.786Z,99372.55
2018-07-13T01:15:55.972Z,99375.93
2018-07-13T01:16:27.255Z,99375.81
2018-07-13T01:16:58.464Z,99372.64
2018-07-13T01:17:29.698Z,99376.87
2018-07-13T01:18:00.879Z,99371.32
2018-07-13T01:18:32.532Z,99377.09
2018-07-13T01:19:03.763Z,99377.22
2018-07-13T01:19:35.129Z,99377.72
2018-07-13T01:20:06.364Z,99374.94
2018-07-13T01:20:37.597Z,99376.39
2018-07-13T01:21:08.823Z,99374.69
2018-07-13T01:21:40.044Z,99373.48
2018-07-13T01:22:11.225Z,99374.45
2018-07-13T01:22:42.403Z,99375.77
2018-07-13T01:23:13.590Z,99377.94
2018-07-13T01:23:44.765Z,99376.02
2018-07-13T01:24:15.932Z,99373.11
2018-07-13T01:24:47.153Z,99374.72
2018-07-13T01:25:18.325Z,99373.97
2018-07-13T01:25:49.553Z,99370.72
2018-07-13T01:26:20.741Z,99374.48
2018-07-13T01:26:51.966Z,99368.68
2018-07-13T01:27:23.152Z,99370.84
2018-07-13T01:27:54.377Z,99371.09
2018-07-13T01:28:25.568Z,99367.70
2018-07-13T01:28:56.750Z,99370.98
2018-07-13T01:29:27.982Z,99371.31
2018-07-13T01:29:59.256Z,99369.98
2018-07-13T01:30:30.440Z,99368.44
2018-07-13T01:31:01.673Z,99368.18
2018-07-13T01:31:32.900Z,99367.09
2018-07-13T01:32:04.084Z,99366.50
2018-07-13T01:32:35.314Z,99369.66
2018-07-13T01:33:06.541Z,99365.89
2018-07-13T01:33:37.721Z,99368.31
2018-07-13T01:34:08.891Z,99370.35
2018-07-13T01:34:40.057Z,99368.41
2018-07-13T01:35:11.275Z,99370.36
2018-07-13T01:35:42.464Z,99372.03
2018-07-13T01:36:13.648Z,99371.30
2018-07-13T01:36:44.833Z,99367.94
2018-07-13T01:37:16.045Z,99376.12
2018-07-13T01:37:47.210Z,99371.06
2018-07-13T01:38:18.433Z,99365.87
2018-07-13T01:38:49.613Z,99370.31
2018-07-13T01:39:20.836Z,99365.96
2018-07-13T01:39:52.049Z,99371.18
2018-07-13T01:40:23.223Z,99366.70
2018-07-13T01:40:54.389Z,99366.70
2018-07-13T01:41:25.612Z,99371.77
2018-07-13T01:41:56.783Z,99372.23
2018-07-13T01:42:27.955Z,99365.59
2018-07-13T01:42:59.173Z,99363.67
2018-07-13T01:43:30.352Z,99365.74
2018-07-13T01:44:01.581Z,99365.86
2018-07-13T01:44:32.757Z,99365.64
2018-07-13T01:45:03.973Z,99365.77
2018-07-13T01:45:35.161Z,99365.14
2018-07-13T01:46:06.389Z,99368.17
2018-07-13T01:46:37.629Z,99364.55
2018-07-13T01:47:08.804Z,99362.85
2018-07-13T01:47:39.987Z,99368.66
2018-07-13T01:48:11.198Z,99362.15
2018-07-13T01:48:42.368Z,99362.61
2018-07-13T01:49:13.536Z,99360.82
2018-07-13T01:49:44.704Z,99360.82
2018-07-13T01:50:17.055Z,99363.34
2018-07-13T01:50:48.290Z,99360.20
2018-07-13T01:51:19.472Z,99365.30
2018-07-13T01:51:50.697Z,99364.33
2018-07-13T01:52:21.864Z,99359.84
2018-07-13T01:52:53.032Z,99355.50
2018-07-13T01:53:24.202Z,99359.02
2018-07-13T01:53:55.370Z,99360.34
2018-07-13T01:54:26.601Z,99355.38
2018-07-13T01:54:57.779Z,99357.69
2018-07-13T01:55:29.017Z,99359.02
2018-07-13T01:56:00.197Z,99361.55
2018-07-13T01:56:31.388Z,99359.72
2018-07-13T01:57:02.658Z,99360.46
2018-07-13T01:57:33.843Z,99357.80
2018-07-13T01:58:05.113Z,99355.52
2018-07-13T01:58:36.298Z,99355.89
2018-07-13T01:59:07.468Z,99361.20
2018-07-13T01:59:38.721Z,99356.11
2018-07-13T02:00:09.929Z,99365.04
2018-07-13T02:00:41.114Z,99360.34
2018-07-13T02:01:12.370Z,99353.80
2018-07-13T02:01:43.560Z,99359.61
2018-07-13T02:02:14.735Z,99354.17
2018-07-13T02:02:45.905Z,99362.15
2018-07-13T02:03:17.067Z,99360.08
2018-07-13T02:03:48.240Z,99358.75
2018-07-13T02:04:19.418Z,99358.75
2018-07-13T02:04:50.650Z,99357.80
2018-07-13T02:05:21.869Z,99356.59
2018-07-13T02:05:53.101Z,99357.67
2018-07-13T02:06:24.330Z,99354.16
2018-07-13T02:06:55.566Z,99360.42
2018-07-13T02:07:26.811Z,99355.83
2018-07-13T02:07:58.396Z,99355.25
2018-07-13T02:08:29.588Z,99356.57
2018-07-13T02:09:00.766Z,99356.20
2018-07-13T02:09:31.932Z,99360.56
2018-07-13T02:10:04.670Z,99356.45
2018-07-13T02:10:35.889Z,99355.13
2018-07-13T02:11:07.070Z,99359.72
2018-07-13T02:11:38.236Z,99359.34
2018-07-13T02:12:09.709Z,99355.36
2018-07-13T02:12:40.893Z,99361.04
2018-07-13T02:13:12.068Z,99358.88
2018-07-13T02:13:43.282Z,99364.06
2018-07-13T02:14:14.450Z,99360.80
2018-07-13T02:14:45.624Z,99362.84
2018-07-13T02:15:16.840Z,99359.47
2018-07-13T02:15:48.097Z,99363.09
2018-07-13T02:16:19.286Z,99360.89
2018-07-13T02:16:50.468Z,99354.63
2018-07-13T02:17:21.694Z,99356.91
2018-07-13T02:17:52.970Z,99357.88
2018-07-13T02:18:24.144Z,99363.77
2018-07-13T02:19:32.006Z,99357.97
2018-07-13T02:20:03.277Z,99360.13
2018-07-13T02:20:34.461Z,99365.20
2018-07-13T02:21:05.673Z,99365.32
2018-07-13T02:21:36.999Z,99363.25
2018-07-13T02:22:08.184Z,99363.84
2018-07-13T02:22:39.410Z,99365.53
2018-07-13T02:23:10.589Z,99364.70
2018-07-13T02:23:41.762Z,99355.28
2018-07-13T02:24:12.998Z,99366.16
2018-07-13T02:24:44.182Z,99363.16
2018-07-13T02:25:15.384Z,99361.58
2018-07-13T02:25:46.565Z,99357.97
2018-07-13T02:26:17.742Z,99355.56
2018-07-13T02:26:48.926Z,99358.80
2018-07-13T02:27:20.102Z,99362.05
2018-07-13T02:27:51.280Z,99358.80
2018-07-13T02:28:22.453Z,99356.52
2018-07-13T02:28:53.726Z,99355.56
2018-07-13T02:29:24.915Z,99355.31
2018-07-13T02:29:56.092Z,99357.02
2018-07-13T02:30:27.262Z,99361.36
2018-07-13T02:30:58.445Z,99357.75
2018-07-13T02:31:29.713Z,99359.20
2018-07-13T02:32:00.914Z,99358.70
2018-07-13T02:32:32.097Z,99352.56
2018-07-13T02:33:03.272Z,99357.88
2018-07-13T02:33:34.504Z,99355.59
2018-07-13T02:34:05.738Z,99353.15
2018-07-13T02:34:36.965Z,99357.38
2018-07-13T02:35:08.153Z,99353.98
2018-07-13T02:35:39.342Z,99353.98
2018-07-13T02:36:10.548Z,99354.36
2018-07-13T02:36:41.767Z,99350.12
2018-07-13T02:37:12.941Z,99354.85
2018-07-13T02:37:44.124Z,99359.80
2018-07-13T02:38:15.298Z,99353.62
2018-07-13T02:38:46.541Z,99353.98
2018-07-13T02:39:17.732Z,99357.38
2018-07-13T02:39:48.904Z,99356.52
2018-07-13T02:40:20.081Z,99351.70
2018-07-13T02:40:51.313Z,99355.44
2018-07-13T02:41:22.542Z,99358.38
2018-07-13T02:41:53.725Z,99348.33
2018-07-13T02:42:24.942Z,99354.38
2018-07-13T02:42:56.126Z,99356.81
2018-07-13T02:43:27.358Z,99353.41
2018-07-13T02:43:58.621Z,99353.69
2018-07-13T02:44:29.809Z,99351.74
2018-07-13T02:45:00.996Z,99356.92
2018-07-13T02:45:32.191Z,99353.94
2018-07-13T02:46:03.413Z,99352.85
2018-07-13T02:46:34.596Z,99354.52
2018-07-13T02:47:05.765Z,99353.19
2018-07-13T02:47:36.945Z,99359.73
2018-07-13T02:48:08.116Z,99356.58
2018-07-13T02:48:39.333Z,99355.63
2018-07-13T02:49:10.500Z,99356.95
2018-07-13T02:49:41.730Z,99353.47
2018-07-13T02:50:12.965Z,99352.97
2018-07-13T02:50:44.194Z,99352.97
2018-07-13T02:51:15.452Z,99359.48
2018-07-13T02:51:46.580Z,99359.98
2018-07-13T02:52:17.797Z,99355.38
2018-07-13T02:52:48.968Z,99360.81
2018-07-13T02:53:20.157Z,99353.80
2018-07-13T02:53:51.390Z,99356.13
2018-07-13T02:54:22.590Z,99356.45
2018-07-13T02:54:53.801Z,99361.66
2018-07-13T02:55:25.053Z,99354.17
2018-07-13T02:55:56.292Z,99353.81
2018-07-13T02:56:28.500Z,99355.97
2018-07-13T02:56:59.765Z,99349.83
2018-07-13T02:57:31.002Z,99349.45
2018-07-13T02:58:02.246Z,99349.45
2018-07-13T02:58:33.441Z,99349.09
2018-07-13T02:59:04.694Z,99353.32
2018-07-13T02:59:35.881Z,99347.14
2018-07-13T03:00:07.113Z,99352.58
2018-07-13T03:00:38.294Z,99348.48
2018-07-13T03:01:10.418Z,99352.47
2018-07-13T03:01:41.692Z,99348.11
2018-07-13T03:02:12.985Z,99345.70
2018-07-13T03:02:44.170Z,99349.69
2018-07-13T03:03:15.336Z,99350.17
2018-07-13T03:03:46.509Z,99349.94
2018-07-13T03:04:17.729Z,99350.77
2018-07-13T03:04:48.912Z,99352.09
2018-07-13T03:05:20.079Z,99351.59
2018-07-13T03:05:51.322Z,99351.97
2018-07-13T03:06:22.557Z,99347.02
2018-07-13T03:06:53.781Z,99351.25
2018-07-13T03:07:25.004Z,99349.81
2018-07-13T03:07:56.177Z,99350.77
2018-07-13T03:08:27.351Z,99351.13
2018-07-13T03:08:58.577Z,99350.52
2018-07-13T03:09:29.872Z,99352.09
2018-07-13T03:10:01.072Z,99351.50
2018-07-13T03:10:32.248Z,99348.37
2018-07-13T03:11:03.425Z,99354.30
2018-07-13T03:11:34.611Z,99351.14
2018-07-13T03:12:05.785Z,99352.63
2018-07-13T03:12:37.015Z,99352.23
2018-07-13T03:13:08.226Z,99352.02
2018-07-13T03:13:39.454Z,99352.91
2018-07-13T03:14:10.774Z,99357.38
2018-07-13T03:14:41.955Z,99349.77
2018-07-13T03:15:13.136Z,99351.58
2018-07-13T03:15:44.378Z,99350.61
2018-07-13T03:16:15.555Z,99350.13
2018-07-13T03:16:46.724Z,99343.96
2018-07-13T03:17:17.961Z,99352.78
2018-07-13T03:17:49.144Z,99349.64
2018-07-13T03:18:20.364Z,99355.56
2018-07-13T03:18:51.544Z,99349.75
2018-07-13T03:19:22.813Z,99352.02
2018-07-13T03:19:53.990Z,99355.16
2018-07-13T03:20:25.225Z,99353.23
2018-07-13T03:20:56.454Z,99360.22
2018-07-13T03:21:27.689Z,99352.74
2018-07-13T03:21:58.877Z,99356.23
2018-07-13T03:22:30.049Z,99348.25
2018-07-13T03:23:01.238Z,99349.69
2018-07-13T03:23:32.419Z,99351.84
2018-07-13T03:24:03.648Z,99349.14
2018-07-13T03:24:34.939Z,99350.84
2018-07-13T03:25:06.117Z,99348.50
2018-07-13T03:25:37.297Z,99353.95
2018-07-13T03:26:08.569Z,99351.98
2018-07-13T03:26:39.805Z,99355.47
2018-07-13T03:27:10.981Z,99349.12
2018-07-13T03:27:42.157Z,99357.20
2018-07-13T03:28:13.328Z,99354.08
2018-07-13T03:28:44.905Z,99353.58
2018-07-13T03:29:16.116Z,99352.75
2018-07-13T03:29:47.356Z,99356.61
2018-07-13T03:30:18.540Z,99353.11
2018-07-13T03:30:49.737Z,99358.06
2018-07-13T03:31:20.966Z,99346.06
2018-07-13T03:31:52.211Z,99352.08
2018-07-13T03:32:23.408Z,99350.00
2018-07-13T03:32:54.621Z,99347.83
2018-07-13T03:33:25.801Z,99350.94
2018-07-13T03:33:56.994Z,99350.41
2018-07-13T03:34:28.218Z,99352.64
2018-07-13T03:34:59.444Z,99355.01
2018-07-13T03:35:30.673Z,99332.52
2018-07-13T03:36:01.914Z,99352.48
2018-07-13T03:36:33.092Z,99352.45
2018-07-13T03:37:04.328Z,99353.39
2018-07-13T03:37:35.561Z,99356.17
2018-07-13T03:38:06.756Z,99357.88
2018-07-13T03:38:37.936Z,99361.56
2018-07-13T03:39:09.111Z,99359.00
2018-07-13T03:39:40.613Z,99354.57
2018-07-13T03:40:11.837Z,99356.84
2018-07-13T03:40:43.024Z,99358.47
2018-07-13T03:41:14.202Z,99361.53
2018-07-13T03:41:45.441Z,99359.86
2018-07-13T03:42:16.625Z,99351.63
2018-07-13T03:42:47.816Z,99349.96
2018-07-13T03:43:19.006Z,99353.63
2018-07-13T03:43:50.205Z,99352.20
2018-07-13T03:44:21.392Z,99349.34
2018-07-13T03:44:52.565Z,99351.45
2018-07-13T03:45:23.790Z,99352.38
2018-07-13T03:45:54.969Z,99353.37
2018-07-13T03:46:28.550Z,99347.46
2018-07-13T03:47:00.145Z,99354.38
2018-07-13T03:47:31.329Z,99346.89
2018-07-13T03:48:03.778Z,99349.34
2018-07-13T03:48:35.012Z,99350.83
2018-07-13T03:49:06.204Z,99349.89
2018-07-13T03:49:37.385Z,99352.00
2018-07-13T03:50:08.612Z,99352.35
2018-07-13T03:50:39.847Z,99358.22
2018-07-13T03:51:11.792Z,99353.84
2018-07-13T03:51:43.035Z,99359.32
2018-07-13T03:52:14.216Z,99356.80
2018-07-13T03:52:45.392Z,99352.25
2018-07-13T03:53:16.573Z,99353.52
2018-07-13T03:53:47.810Z,99357.97
2018-07-13T03:54:19.089Z,99358.56
2018-07-13T03:54:51.157Z,99354.91
2018-07-13T03:55:22.388Z,99364.47
2018-07-13T03:55:53.633Z,99356.16
2018-07-13T03:56:24.812Z,99364.11
2018-07-13T03:56:56.125Z,99364.03
2018-07-13T03:57:27.368Z,99364.17
2018-07-13T03:57:58.609Z,99367.31
2018-07-13T03:58:29.813Z,99359.03
2018-07-13T03:59:01.040Z,99356.29
2018-07-13T03:59:32.265Z,99354.59
2018-07-13T04:00:03.503Z,99362.67
2018-07-13T04:00:34.823Z,99360.08
2018-07-13T04:01:06.037Z,99353.77
2018-07-13T04:01:37.269Z,99361.39
2018-07-13T04:02:08.505Z,99355.48
2018-07-13T04:02:39.692Z,99360.11
2018-07-13T04:03:10.938Z,99355.23
2018-07-13T04:03:42.172Z,99360.23
2018-07-13T04:04:13.383Z,99360.17
2018-07-13T04:04:44.606Z,99357.34
2018-07-13T04:05:15.773Z,99368.56
2018-07-13T04:05:46.996Z,99355.33
2018-07-13T04:06:18.190Z,99356.30
2018-07-13T04:06:49.422Z,99357.80
2018-07-13T04:07:20.614Z,99359.88
2018-07-13T04:07:51.792Z,99357.72
2018-07-13T04:08:22.966Z,99355.47
2018-07-13T04:08:54.155Z,99359.01
2018-07-13T04:09:25.383Z,99356.23
2018-07-13T04:09:56.636Z,99359.53
2018-07-13T04:10:27.877Z,99359.09
2018-07-13T04:10:59.111Z,99352.91
2018-07-13T04:11:30.310Z,99352.66
2018-07-13T04:12:01.540Z,99363.69
2018-07-13T04:12:32.744Z,99361.69
2018-07-13T04:13:03.924Z,99361.80
2018-07-13T04:13:35.112Z,99354.02
2018-07-13T04:14:06.341Z,99362.78
2018-07-13T04:14:37.586Z,99362.05
2018-07-13T04:15:08.828Z,99351.00
2018-07-13T04:15:40.033Z,99351.19
2018-07-13T04:16:11.261Z,99352.85
2018-07-13T04:16:42.453Z,99364.25
2018-07-13T04:17:13.725Z,99360.63
2018-07-13T04:17:44.974Z,99358.62
2018-07-13T04:18:16.538Z,99364.80
2018-07-13T04:18:47.718Z,99365.44
2018-07-13T04:19:18.916Z,99360.96
2018-07-13T04:19:50.106Z,99363.13
2018-07-13T04:20:21.280Z,99367.13
2018-07-13T04:20:52.473Z,99367.31
2018-07-13T04:21:23.709Z,99368.83
2018-07-13T04:21:54.982Z,99365.98
2018-07-13T04:22:26.174Z,99365.59
2018-07-13T04:22:57.352Z,99367.44
2018-07-13T04:23:28.580Z,99361.02
2018-07-13T04:23:59.825Z,99360.61
2018-07-13T04:24:31.069Z,99360.50
2018-07-13T04:25:02.332Z,99359.67
2018-07-13T04:25:33.556Z,99358.83
2018-07-13T04:26:04.788Z,99370.66
2018-07-13T04:26:36.022Z,99365.98
2018-07-13T04:27:07.386Z,99363.88
2018-07-13T04:27:38.572Z,99359.45
2018-07-13T04:28:09.750Z,99367.91
2018-07-13T04:28:41.053Z,99364.09
2018-07-13T04:29:13.181Z,99360.78
2018-07-13T04:29:44.376Z,99362.34
2018-07-13T04:30:16.204Z,99362.84
2018-07-13T04:30:47.389Z,99353.87
2018-07-13T04:31:18.577Z,99361.19
2018-07-13T04:31:49.760Z,99363.63
2018-07-13T04:32:21.033Z,99358.95
2018-07-13T04:32:52.214Z,99357.50
2018-07-13T04:33:24.200Z,99361.07
2018-07-13T04:33:55.393Z,99363.94
2018-07-13T04:34:26.570Z,99363.10
2018-07-13T04:34:57.813Z,99365.39
2018-07-13T04:35:29.090Z,99366.70
2018-07-13T04:36:00.301Z,99363.95
2018-07-13T04:36:31.489Z,99361.95
2018-07-13T04:37:03.106Z,99363.05
2018-07-13T04:37:34.955Z,99365.02
2018-07-13T04:38:06.148Z,99364.39
2018-07-13T04:38:37.409Z,99363.23
2018-07-13T04:39:08.612Z,99366.71
2018-07-13T04:39:39.849Z,99362.16
2018-07-13T04:40:11.047Z,99368.70
2018-07-13T04:40:42.402Z,99359.90
2018-07-13T04:41:14.477Z,99361.29
2018-07-13T04:41:45.657Z,99360.72
2018-07-13T04:42:16.837Z,99362.31
2018-07-13T04:42:48.020Z,99364.91
2018-07-13T04:43:19.196Z,99361.23
2018-07-13T04:43:50.424Z,99359.94
2018-07-13T04:44:21.627Z,99366.65
2018-07-13T04:44:53.645Z,99358.59
2018-07-13T04:45:24.826Z,99365.75
2018-07-13T04:45:56.035Z,99368.33
2018-07-13T04:46:27.269Z,99366.79
2018-07-13T04:46:58.456Z,99362.92
2018-07-13T04:47:29.809Z,99376.17
2018-07-13T04:48:01.011Z,99368.53
2018-07-13T04:48:34.207Z,99376.45
2018-07-13T04:49:03.449Z,99373.95
2018-07-13T04:49:34.686Z,99379.28
2018-07-13T04:50:05.923Z,99378.50
2018-07-13T04:50:37.100Z,99380.37
2018-07-13T04:51:08.301Z,99377.50
2018-07-13T04:51:39.505Z,99377.27
2018-07-13T04:52:10.799Z,99374.03
2018-07-13T04:52:42.058Z,99379.81
2018-07-13T04:53:13.270Z,99376.16
2018-07-13T04:53:44.490Z,99375.41
2018-07-13T04:54:16.496Z,99380.14
2018-07-13T04:54:47.692Z,99379.30
2018-07-13T04:55:19.680Z,99383.19
2018-07-13T04:55:50.917Z,99380.10
2018-07-13T04:56:22.100Z,99378.55
2018-07-13T04:56:53.291Z,99384.19
2018-07-13T04:57:24.529Z,99374.69
2018-07-13T04:57:55.776Z,99381.80
2018-07-13T04:58:27.549Z,99379.56
2018-07-13T04:58:58.791Z,99376.33
2018-07-13T04:59:30.092Z,99376.49
2018-07-13T05:00:01.288Z,99382.98
2018-07-13T05:00:32.520Z,99370.07
2018-07-13T05:01:03.755Z,99376.83
2018-07-13T05:01:35.593Z,99381.75
2018-07-13T05:02:06.774Z,99376.45
2018-07-13T05:02:37.960Z,99375.47
2018-07-13T05:03:09.204Z,99377.73
2018-07-13T05:03:40.399Z,99374.19
2018-07-13T05:04:11.592Z,99378.69
2018-07-13T05:04:42.858Z,99369.34
2018-07-13T05:05:14.045Z,99377.80
2018-07-13T05:05:45.249Z,99378.84
2018-07-13T05:06:16.449Z,99374.21
2018-07-13T05:06:47.632Z,99375.55
2018-07-13T05:07:18.843Z,99371.55
2018-07-13T05:07:50.072Z,99371.92
2018-07-13T05:08:21.264Z,99378.02
2018-07-13T05:08:52.494Z,99366.20
2018-07-13T05:09:23.729Z,99371.58
2018-07-13T05:09:54.974Z,99366.98
2018-07-13T05:10:26.260Z,99376.37
2018-07-13T05:10:57.484Z,99375.84
2018-07-13T05:11:28.664Z,99373.77
2018-07-13T05:11:59.832Z,99377.05
2018-07-13T05:12:31.009Z,99376.58
2018-07-13T05:13:02.216Z,99375.48
2018-07-13T05:13:33.393Z,99378.73
2018-07-13T05:14:04.572Z,99373.20
2018-07-13T05:14:35.760Z,99375.95
2018-07-13T05:15:06.991Z,99375.45
2018-07-13T05:15:38.168Z,99372.86
2018-07-13T05:16:09.341Z,99367.30
2018-07-13T05:16:40.525Z,99369.41
2018-07-13T05:17:11.697Z,99374.77
2018-07-13T05:17:42.937Z,99374.32
2018-07-13T05:18:14.128Z,99372.00
2018-07-13T05:18:45.353Z,99378.31
2018-07-13T05:19:16.541Z,99374.32
2018-07-13T05:19:47.721Z,99375.77
2018-07-13T05:20:18.936Z,99377.98
2018-07-13T05:20:50.169Z,99376.70
2018-07-13T05:21:21.473Z,99373.00
2018-07-13T05:21:52.634Z,99378.67
2018-07-13T05:22:23.814Z,99378.81
2018-07-13T05:22:54.995Z,99380.89
2018-07-13T05:23:26.192Z,99377.58
2018-07-13T05:23:57.371Z,99371.02
2018-07-13T05:24:28.601Z,99372.50
2018-07-13T05:24:59.793Z,99374.39
2018-07-13T05:25:31.025Z,99373.59
2018-07-13T05:26:02.208Z,99373.80
2018-07-13T05:26:33.392Z,99372.30
2018-07-13T05:27:04.594Z,99375.30
2018-07-13T05:27:35.789Z,99374.88
2018-07-13T05:28:07.069Z,99376.47
2018-07-13T05:28:38.260Z,99378.02
2018-07-13T05:29:09.449Z,99372.50
2018-07-13T05:29:40.628Z,99377.83
2018-07-13T05:30:11.865Z,99376.73
2018-07-13T05:30:43.080Z,99375.82
2018-07-13T05:31:14.269Z,99377.88
2018-07-13T05:31:45.534Z,99376.70
2018-07-13T05:32:16.752Z,99388.14
2018-07-13T05:32:47.944Z,99377.20
2018-07-13T05:33:19.186Z,99378.05
2018-07-13T05:33:50.420Z,99377.60
2018-07-13T05:34:21.608Z,99372.91
2018-07-13T05:34:52.800Z,99377.38
2018-07-13T05:35:23.983Z,99375.41
2018-07-13T05:35:55.217Z,99373.82
2018-07-13T05:36:26.416Z,99379.48
2018-07-13T05:36:57.658Z,99372.59
2018-07-13T05:37:28.850Z,99375.21
2018-07-13T05:38:00.043Z,99371.09
2018-07-13T05:38:31.314Z,99369.83
2018-07-13T05:39:02.517Z,99374.67
2018-07-13T05:39:33.859Z,99372.66
2018-07-13T05:40:05.056Z,99373.98
2018-07-13T05:40:36.282Z,99369.88
2018-07-13T05:41:08.090Z,99375.51
2018-07-13T05:41:39.268Z,99370.83
2018-07-13T05:42:10.452Z,99374.21
2018-07-13T05:42:41.672Z,99371.09
2018-07-13T05:43:12.888Z,99375.56
2018-07-13T05:43:44.163Z,99374.63
2018-07-13T05:44:15.371Z,99380.30
2018-07-13T05:44:46.593Z,99373.73
2018-07-13T05:45:17.776Z,99377.99
2018-07-13T05:45:48.996Z,99372.94
2018-07-13T05:46:20.187Z,99377.19
2018-07-13T05:46:51.403Z,99382.09
2018-07-13T05:47:22.641Z,99375.84
2018-07-13T05:47:53.817Z,99378.93
2018-07-13T05:48:24.997Z,99382.92
2018-07-13T05:48:56.226Z,99381.81
2018-07-13T05:49:32.334Z,99384.55
2018-07-13T05:50:03.464Z,99382.86
2018-07-13T05:50:34.626Z,99382.05
2018-07-13T05:51:05.891Z,99383.39
2018-07-13T05:51:37.111Z,99380.51
2018-07-13T05:52:08.224Z,99378.73
2018-07-13T05:52:39.405Z,99374.98
2018-07-13T05:53:10.600Z,99253.59
2018-07-13T05:53:41.831Z,99378.92
2018-07-13T05:54:13.048Z,99375.78
2018-07-13T05:54:44.449Z,99375.41
2018-07-13T05:55:15.654Z,99371.92
2018-07-13T05:55:46.906Z,99380.17
2018-07-13T05:56:18.255Z,99378.00
2018-07-13T05:56:49.429Z,99375.56
2018-07-13T05:57:20.642Z,99371.93
2018-07-13T05:57:51.873Z,99376.07
2018-07-13T05:58:23.116Z,99375.45
2018-07-13T05:58:54.332Z,99369.77
2018-07-13T05:59:25.553Z,99370.80
2018-07-13T05:59:56.777Z,99373.02
2018-07-13T06:00:27.944Z,99371.85
2018-07-13T06:00:59.154Z,99369.52
2018-07-13T06:01:30.393Z,99368.86
2018-07-13T06:02:01.613Z,99363.45
2018-07-13T06:02:33.914Z,99370.18
2018-07-13T06:03:05.996Z,99365.31
2018-07-13T06:03:37.170Z,99365.97
2018-07-13T06:04:08.393Z,99370.84
2018-07-13T06:04:39.588Z,99365.47
2018-07-13T06:05:10.793Z,99363.83
2018-07-13T06:05:41.995Z,99369.56
2018-07-13T06:06:13.328Z,99363.31
2018-07-13T06:06:44.564Z,99367.22
2018-07-13T06:07:15.759Z,99364.66
2018-07-13T06:07:47.072Z,99367.53